TimeEST,TemperatureF,Dew PointF,Humidity,Sea Level PressureIn,VisibilityMPH,Wind Direction,Wind SpeedMPH,Gust SpeedMPH,PrecipitationIn,Events,Conditions,WindDirDegrees,DateUTC
12:13 AM,37.4,37.4,100,29.66,0.2,Calm,Calm,-,N/A,Fog,Fog,0,2013-02-12 05:13:00
12:20 AM,37.4,37.4,100,29.66,0.2,Calm,Calm,-,N/A,Fog,Fog,0,2013-02-12 05:20:00
12:43 AM,39.2,39.2,100,29.67,1.0,West,4.6,-,N/A,,Overcast,270,2013-02-12 05:43:00
12:47 AM,37.4,37.4,100,29.68,3.0,WNW,5.8,-,N/A,,Overcast,290,2013-02-12 05:47:00
12:56 AM,39.0,39.0,100,29.67,6.0,WNW,3.5,-,N/A,,Overcast,290,2013-02-12 05:56:00
1:09 AM,39.2,39.2,100,29.66,8.0,SW,3.5,-,N/A,,Scattered Clouds,230,2013-02-12 06:09:00
1:56 AM,37.9,37.9,100,29.67,5.0,WSW,4.6,-,N/A,,Scattered Clouds,240,2013-02-12 06:56:00
2:00 AM,35.6,35.6,100,29.67,1.0,West,3.5,-,N/A,,Scattered Clouds,260,2013-02-12 07:00:00
2:04 AM,33.8,33.8,100,29.67,0.2,West,5.8,-,N/A,Fog,Fog,260,2013-02-12 07:04:00
2:17 AM,33.8,33.8,100,29.68,1.0,WNW,4.6,-,N/A,,Mist,300,2013-02-12 07:17:00
2:25 AM,35.6,35.6,100,29.69,1.5,West,6.9,-,N/A,,Partly Cloudy,280,2013-02-12 07:25:00
2:30 AM,37.4,37.4,100,29.68,3.0,WNW,6.9,-,N/A,,Clear,290,2013-02-12 07:30:00
2:56 AM,37.9,37.9,100,29.68,5.0,WNW,4.6,-,N/A,,Mostly Cloudy,290,2013-02-12 07:56:00
3:56 AM,39.0,34.0,82,29.70,10.0,NW,8.1,-,N/A,,Overcast,320,2013-02-12 08:56:00
4:56 AM,39.0,34.0,82,29.71,9.0,West,4.6,-,N/A,,Overcast,270,2013-02-12 09:56:00
5:56 AM,37.9,34.0,86,29.72,9.0,NW,4.6,-,N/A,,Scattered Clouds,310,2013-02-12 10:56:00
6:56 AM,37.4,33.8,87,29.73,8.0,WNW,4.6,-,N/A,,Clear,290,2013-02-12 11:56:00
7:56 AM,37.9,34.0,86,29.75,8.0,West,8.1,-,N/A,,Clear,260,2013-02-12 12:56:00
8:56 AM,39.9,32.0,73,29.77,9.0,WSW,9.2,-,N/A,,Partly Cloudy,250,2013-02-12 13:56:00
9:56 AM,42.1,28.0,58,29.78,10.0,West,13.8,18.4,N/A,,Overcast,270,2013-02-12 14:56:00
10:56 AM,39.9,32.0,73,29.78,10.0,WSW,13.8,-,N/A,,Overcast,250,2013-02-12 15:56:00
11:56 AM,39.9,32.0,73,29.78,8.0,WSW,11.5,-,N/A,,Overcast,240,2013-02-12 16:56:00
12:56 PM,43.0,27.0,53,29.79,7.0,West,11.5,21.9,N/A,,Mostly Cloudy,280,2013-02-12 17:56:00
1:56 PM,39.9,34.0,79,29.79,8.0,WSW,11.5,19.6,N/A,,Mostly Cloudy,240,2013-02-12 18:56:00
2:56 PM,42.1,32.0,67,29.80,9.0,West,9.2,-,N/A,,Mostly Cloudy,270,2013-02-12 19:56:00
3:56 PM,44.1,27.0,51,29.79,10.0,WNW,12.7,-,N/A,,Clear,290,2013-02-12 20:56:00
4:56 PM,42.1,27.0,55,29.79,10.0,WNW,9.2,-,N/A,,Clear,300,2013-02-12 21:56:00
5:56 PM,39.9,27.0,60,29.82,10.0,WNW,5.8,-,N/A,,Clear,300,2013-02-12 22:56:00
6:56 PM,39.9,27.0,60,29.91,10.0,WSW,11.5,17.3,N/A,,Mostly Cloudy,250,2013-02-12 23:56:00
7:56 PM,39.0,27.0,62,29.91,10.0,West,9.2,-,N/A,,Overcast,270,2013-02-13 00:56:00
8:56 PM,39.0,26.1,60,29.91,10.0,West,9.2,-,N/A,,Mostly Cloudy,280,2013-02-13 01:56:00
9:56 PM,37.0,25.0,62,29.88,10.0,NW,4.6,-,N/A,,Clear,310,2013-02-13 02:56:00
10:56 PM,35.1,25.0,67,29.87,10.0,West,4.6,-,N/A,,Clear,270,2013-02-13 03:56:00
11:56 PM,34.0,25.0,70,29.88,10.0,West,5.8,-,N/A,,Clear,280,2013-02-13 04:56:00